Valladolid, YUC, Mexico
Current Conditions -  °F | °C
As of 5:41 AM on Monday 26 Jan 2015 (Local Time) from MMCZ Reporting Station
Clear Clear  
Wind Chill: 64°   Ceiling: Unl
Heat Index: 64°   Visibility: 7mi
Dew Point: 57°   Wind: 14mph
Humidity: 77%   Direction: 320°NW
Pressure: 30.1"   Gusts: NA
Location:  20.69°N, 88.21°W
Report Text: MMCZ 261141Z 32012KT 7SM SKC 18/14 A3010 RMK SLP182 57012 908 SC RTS
Loading
Personal Weather Stations






























Interactive Weather Map New forecast layout! Learn more

10-Day Weather Forecast

Advertisements
Track Severe Weather on mobile